OPA Logo
 

ASOS: KRDM
At:2017.11.22 0256 UTC
Wind:160° @ 6KT
Viz: 10 mile(s)
Sky: overcast
Temp: 59.0 F (15.0 C)
DewP: 46.9 F (8.3 C)
RH: 64%
Baro: 30.1 in.
ob: KRDM 220256Z 16006KT 10SM OVC075 15/08 A3010 RMK AO2 SLP182 T01500083 53005
Apache-SSL Logo

Valid HTML 4.01!

Central Oregon OPA Chapter

Chapter Officers 2006:

President
Gary E. Miller
109 NW Wilmington Ave.
Bend OR 97701
541 382-8588
gem@rellim.com

Vice President:
Open

Secretary/Treasurer:
Don Wilfong
210 SE Cessna Dr
Bend OR 97702
541 389-1456
dwnw@bendbroadband.com


Web page by: gem@rellim.com